sim
Sign-in with your pilot id or email,
or register
Callsign
Passwort

Schedule Details

Flight Number: DLH1938 (2)
Departure: Munich Airport (EDDM) at 18:55
Arrival: Trieste Friuli Venezia Giulia Airport (LIPQ) at 19:50
Route: Lufthansa Passenger Schedule. Enter filed route here before submitting Pirep.

Weather Information
Getting current METAR information for EDDM 230850Z 26009KT 9999 VCSH BKN012 FEW015CB BKN020 16/15 Q1010 TEMPO 4000 SHRA
Getting current METAR information for LIPQ 230850Z AUTO 16004KT 9999 SCT009 SCT062 BKN073 20/17 Q1010

Schedule Frequency

Route Map